• Back
  •  
  • Position of Reservoir Gates
S.No.
No. of opened gates
Position of opening (In m)
Reporting Date
Reporting Time
Discharge in Cumecs
Discharge in Cusecs
Actual date and time of Gate opening
1
2
3
4
5
6
7
8
1 1 0.1 04/10/2021 8:00:00 AM 10 353.15 4.10.21 8am
2 1 0.1 05/10/2021 8:00:00 AM 10 353.15 5.10.21 8am
3 1 0.05 06/10/2021 8:00:00 AM 5 176.57 6.10.21 8am
4 0 0 06/10/2021 4:00:00 PM 0 0
5 1 0.3 10/07/2016 5:25:00 PM 28.04 990.23
6 1 1 11/07/2016 7:15:00 AM 100 3531.5
7 2 1 11/07/2016 11:00:00 AM 200 7063
8 1 0.1 12/07/2016 5:25:00 AM 10 353.15
9 1 0.5 12/07/2016 2:55:00 PM 50 1765.75
10 1 0.5 12/07/2016 4:05:00 PM 50 1765.75
11 2 1 12/07/2016 4:05:00 PM 200 7063
12 2 1.5 12/07/2016 10:30:00 PM 150 5297.25
13 2 1.5 13/07/2016 8:00:00 AM 150 5297.25
14 1 0.3 13/07/2016 5:00:00 PM 30 1059.45
15 1 0.3 14/07/2016 8:00:00 AM 30 1059.45
16 1 0.1 18/07/2016 8:00:00 AM 10 353.15
17 1 0.1 14/07/2016 9:55:00 AM 10 353.15
18 1 0.3 19/10/2021 8:00:00 AM 30.5 1077.11 19.10.21 8am
19 1 0.1 15/07/2016 8:00:00 AM 10 353.15
20 1 0.1 16/07/2016 6:20:00 AM 10 353.15
21 1 0.1 17/07/2016 8:00:00 AM 10 353.15
22 1 0.1 18/07/2016 6:20:00 AM 163 5756.34
23 0 0 19/07/2016 3:00:00 PM 0 0
24 1 0.1 18/07/2016 6:20:00 AM 10 353.15
25 1 0.1 19/07/2016 6:20:00 AM 9.345 330.02
26 1 0.1 24/07/2016 8:01:00 AM 10 353.15
27 1 0.1 25/07/2016 8:01:00 AM 10 353.15
28 1 0.2 28/07/2016 6:50:00 PM 20 706.3
29 1 0.1 30/07/2016 6:30:00 AM 10 353.15
30 1 0.5 29/07/2016 12:01:00 AM 50 1765.75
31 1 0.1 30/07/2016 6:35:00 AM 10 353.15
32 1 0.1 30/07/2016 6:35:00 AM 10 353.15
33 1 0.1 31/07/2016 12:01:00 AM 10 353.15 Dt of opening 30/7/2016 6:35PM
34 3 0.43 04/08/2016 12:01:00 AM 130 4590.95 Av. gate open-0.43m.Gate open 3/8/2016 11 PM
35 1 0.3 30/08/2020 8:00:00 AM 30.52 1077.81
36 1 0.1 01/08/2016 12:01:00 AM 10 353.15 gate open 30/07/2016 6:35 AM
37 1 0.1 02/08/2016 12:00:00 PM 10 353.15
38 1 0.1 03/08/2016 12:00:00 AM 10 353.15 01 No Gate opened since 6.35AM Dated 30/07/2016
39 1 0.1 05/08/2016 6:45:00 AM 10 353.15
40 1 0.3 30/08/2020 12:00:00 PM 30.5 1077.11
41 1 0.3 31/08/2020 12:00:00 AM 30.5 1077.11 Gates Opened on Dated 30.08.2020 at 12.00 PM
42 3 0.3 06/08/2016 12:01:00 AM 110 3884.65 Gate open-5/8/2016 9:40 AM. Av. opening-0.30m
43 1 0.3 06/08/2016 11:45:00 AM 30 1059.45
44 2 0.4 06/08/2016 5:00:00 PM 80 2825.2 Av. opening-0.40m
45 3 0.43 07/08/2016 12:01:00 AM 130 4590.95 Av. open-0.43m.Gate open-6/8/2016 10:00 PM
46 3 0.6 07/08/2016 1:00:00 PM 200 7063
47 3 0.83 07/08/2016 5:00:00 PM 254 8970.01
48 1 0.3 01/09/2020 12:00:00 AM 30.52 1077.81 31/08/2020 12.00PM
49 1 0.1 02/09/2020 12:00:00 AM 10 353.15 01/09/2020 12.00PM
50 1 0.3 08/08/2016 6:25:00 AM 30 1059.45
51 1 0.3 09/08/2016 12:01:00 AM 30 1059.45 Gate open 8/8/2016 4PM
52 1 0.8 08/08/2016 11:00:00 AM 80 2825.2
53 1 0.3 08/08/2016 4:01:00 PM 30 1059.45
54 1 0.3 10/08/2016 12:00:00 AM 30 1059.45 Gate open-8/8/2016 4 PM
55 1 0.3 11/08/2016 12:00:00 AM 30 1059.45 Gate open-8/8/2016 4PM
56 0 0 12/08/2016 6:45:00 AM 0 0 closed
57 1 0.1 12/08/2016 5:20:00 PM 10 353.15
58 3 3.33 13/08/2016 2:00:00 AM 1000 35315
59 1 0.3 16/08/2016 12:00:00 AM 30 1059.45 gate open 14/8/2016 5 PM
60 1 0.3 22/08/2016 2:01:00 PM 30 1059.45
61 1 0.3 23/09/2020 8:00:00 PM 30.52 1077.81
62 0 0 13/08/2016 2:30:00 PM 0 0 Closed
63 3 2.66 19/08/2016 8:01:00 PM 800 28252 Av. gate open-2.66m
64 1 0.1 23/08/2016 7:30:00 PM 10 353.15
65 1 0.3 24/09/2020 12:00:00 AM 30.52 1077.81
66 1 0.1 14/08/2016 8:45:00 AM 10 353.15
67 1 0.1 19/08/2016 12:00:00 AM 10 353.15 Gate open 18/8/16 6pm
68 1 1 21/08/2016 5:00:00 AM 100 3531.5
69 1 0.3 14/08/2016 5:00:00 PM 30 1059.45
70 1 0.5 20/08/2016 6:00:00 AM 50 1765.75
71 1 0.3 15/08/2016 12:00:00 AM 30.52 1077.81 gate open-14/8/2016 4:30 PM
72 1 0.3 02/08/2021 12:00:00 PM 30.52 1077.81 02/08/2021 11.11 AM
73 3 2 02/08/2021 4:00:00 PM 610.5 21559.81 02/08/2021
74 2 2 03/08/2021 8:00:00 AM 203.5 7186.6 03/08/2021
75 2 1.5 03/08/2021 12:00:00 PM 305.2 10778.14 03/08/2021
76 1 1 04/08/2021 8:00:00 PM 101.7 3591.54 04-08-2021 17:23
77 1 1 05/08/2021 8:00:00 AM 101.7 3591.54 05/08/2021
78 3 1 05/08/2021 8:00:00 PM 712.2 25151.34
79 3 2.33 05/08/2021 8:15:00 PM 712.2 25151.34
80 1 0.3 18/08/2016 12:00:00 AM 30 1059.45 Gate open 14/8/2016 5 PM
81 1 0.1 18/08/2016 6:00:00 PM 10 353.15
82 1 0.2 21/08/2016 7:30:00 PM 20 706.3
83 1 0.3 17/08/2016 12:00:00 AM 30 1059.45 gate open 14/8/2016 5 PM
84 1 0.5 21/08/2016 1:00:00 PM 50 1765.75
85 1 0.3 23/08/2016 12:00:00 AM 30 1059.45 gate open 22/8/2016 2 PM
86 1 0.1 24/08/2016 12:00:00 AM 10 353.15 gate open 23/85/2016 7:30 PM
87 3 3 06/08/2021 12:00:00 PM 918.7 32443.89 06/08/2021
88 5 3.6 06/08/2021 4:00:00 PM 1526 53890.69
89 2 3 06/08/2021 8:00:00 PM 610.5 21559.81
90 1 0.1 07/08/2021 8:00:00 AM 10 353.15 07/08/2021
91 1 0.1 08/08/2021 8:00:00 AM 10 353.15 08/08/2021
92 1 0.2 22/08/2016 12:00:00 AM 20 706.3 gate open 21/8/2016 7:30 pm
93 1 0.5 10/08/2021 12:00:00 PM 50.87 1796.47 10/08/2021 12.30 pm
94 1 0.5 10/08/2021 4:00:00 PM 50.87 1796.47
95 2 2 10/08/2021 5:45:00 PM 407 14373.2
96 1 1 11/08/2021 12:00:00 PM 30.5 1077.11 11/08/2021
97 1 0.3 11/08/2021 4:00:00 PM 30.5 1077.11
98 1 0.3 12/08/2021 8:00:00 AM 30.5 1077.11 12/08/2021
99 1 0.1 13/08/2021 8:00:00 AM 10 353.15 13/08/2021
100 0 0 13/08/2021 4:00:00 PM 0 0
101 1 0.5 18/08/2021 5:10:00 PM 50.87 1796.47
102 1 0.5 19/08/2021 8:00:00 AM 50.87 1796.47 19/08/2021
103 1 0.3 19/08/2021 7:20:00 PM 30.5 1077.11
104 1 0.3 20/08/2021 8:00:00 AM 10 353.15 20/08/2021
105 1 0.1 20/08/2021 12:00:00 PM 10 353.15
106 1 0.5 21/08/2021 8:00:00 AM 50.87 1796.47
107 1 0.1 23/08/2021 8:00:00 AM 10 353.15 21/08/2021
108 1 0.1 25/08/2016 12:00:00 AM 10 353.15 Gate open 23/8/2016 7:35 PM
109 0 0 25/08/2016 9:30:00 AM 0 0 closed
110 1 0.1 24/08/2021 8:00:00 AM 10 353.15 24/08/2021
111 1 0.1 25/08/2021 8:00:00 AM 10 353.15 25/08/2021
112 0 0 25/08/2021 4:00:00 PM 0 0
113 1 0.05 09/09/2021 4:00:00 PM 5 176.57
114 1 0.05 10/09/2021 8:00:00 AM 5 176.57
115 1 0.5 10/09/2021 12:00:00 PM 5 176.57
116 1 0.05 10/09/2021 12:00:00 PM 5 176.57
117 1 0.1 11/09/2021 8:00:00 AM 10 353.15
118 1 0.1 11/09/2021 8:00:00 AM 10 353.15
119 1 0.1 12/09/2021 8:00:00 AM 10 353.15
120 1 0.3 28/08/2016 8:00:00 AM 30 1059.45 Gate opened at 6 am on 28.08.2016
121 1 0.1 29/08/2016 8:01:00 AM 10 353.15
122 1 0.1 13/09/2021 8:00:00 AM 10 353.15 13.9.21 8am
123 1 0.1 13/09/2021 12:00:00 PM 10 353.15 13.9.21 12pm
124 1 0.1 14/09/2021 8:00:00 AM 359.3 12688.68 14.9.21 8 am
125 1 0.1 14/09/2021 12:00:00 PM 10 353.15 14.9.21 12am
126 1 0.05 14/09/2021 4:00:00 PM 5 176.57
127 1 0.05 15/09/2021 8:00:00 AM 5 176.57 15/09/2021
128 1 0.05 15/09/2021 12:00:00 PM 179.6 6342.57 15.9.21 12 am
129 1 0.1 30/08/2016 12:00:00 AM 10 353.15 Gate open-29/8/2016 8 AM
130 1 0.1 31/08/2016 12:00:00 AM 10 353.15 Gate open-29/8/2016 8 AM
131 1 0.3 31/08/2016 6:00:00 PM 30 1059.45
132 1 0.3 01/09/2016 12:00:00 AM 30 1059.45 Gate open- 31/8/2016 6PM
133 1 0.1 01/09/2016 12:00:00 PM 10 353.15 Gates opened at 10:00 am on 01/09/2016
134 0 0 02/09/2016 7:50:00 AM 0 0 closed
135 1 0.05 15/09/2021 12:00:00 PM 5 176.57 15/09/2021
136 1 0.05 16/09/2021 8:00:00 AM 5 176.57 16/09/2021
137 1 0.05 18/09/2021 12:00:00 PM 5 176.57
138 1 0.3 19/09/2021 8:00:00 AM 30.5 1077.11
139 1 0.05 20/09/2021 8:00:00 AM 5 176.57 20/09/2021
140 1 0.05 21/09/2021 8:00:00 AM 5 176.57 21/09/2021
141 1 0.05 22/09/2021 8:00:00 AM 5 176.57 22/09/2021
142 1 0.05 23/09/2021 8:00:00 AM 5 176.57 23/09/2021
143 1 0.1 23/09/2021 8:00:00 PM 10 353.15
144 1 0.1 24/09/2021 8:00:00 AM 10 353.15 24.9.21 8am
145 1 0.1 25/09/2021 8:00:00 AM 10 353.15
146 1 0.2 26/09/2021 8:00:00 AM 20.3 716.89 26/09/2021
147 2 0.15 26/09/2021 8:00:00 AM 20.3 716.89
148 1 0.1 04/09/2016 10:00:00 AM 10 353.15
149 1 0.1 18/09/2016 4:30:00 PM 10 353.15
150 1 0.2 27/09/2021 8:00:00 AM 20.3 716.89 27.9.21 8am
151 4 0.2 28/09/2021 8:00:00 AM 20.3 716.89 28.9.21 8am
152 1 0.2 28/09/2021 8:00:00 AM 20.3 716.89 28/09/2021
153 1 0.1 28/09/2021 8:00:00 AM 10 353.15 28/09/2021
154 0 0 28/09/2021 8:00:00 PM 0 0
155 0 0 29/09/2021 12:00:00 PM 0 0 29.9.21 12pm
156 1 0.1 19/09/2016 12:00:00 AM 10 353.15 Gate opened 18/9/2016 4:40 PM
157 1 0.1 20/09/2016 12:00:00 AM 10 353.15 Gate open 18/9/2016 4:40 PM
158 1 0.05 30/09/2021 8:00:00 PM 5 176.57
159 1 0.05 01/10/2021 8:00:00 AM 5 176.57 1.10.218am
160 1 0.15 02/10/2021 8:00:00 AM 10.66 376.46
161 1 0.05 02/10/2021 8:00:00 AM 5 176.57
162 1 0.2 03/10/2021 8:00:00 AM 20.3 716.89
163 1 0.05 16/09/2018 12:01:00 AM 5 176.57 gate opening 0.05m since 13/9/2018 (11:40am)
164 1 0.1 09/09/2018 4:00:00 PM 10 353.15
165 1 0.1 10/09/2018 12:01:00 AM 10 353.15 gate opening since 8/9/2018 at 6pm
166 1 0.1 11/09/2018 12:01:00 AM 10 353.15 353 cusecs discharge passing gate since 8/9/201 (6pm)
167 1 0.2 11/09/2018 8:00:00 AM 20 706.3
168 1 0.2 12/09/2018 12:01:00 AM 20 706.3
169 1 0.05 24/09/2018 8:01:00 AM 5 176.57
170 1 0.1 12/09/2018 2:00:00 PM 10 353.15
171 1 0.05 15/09/2018 12:01:00 AM 5 176.57 gate opening since 13/9/2018 (11:40am)
172 1 0.1 13/09/2018 12:01:00 AM 10 353.15 gate opening is 0.10m since 12/9/2018 (2pm)
173 1 0.05 13/09/2018 11:00:00 AM 5 176.57
174 1 0.05 13/09/2018 11:40:00 AM 5 176.57 Gate opening is 0.05 m since 13/9/18 (11.40 AM)
175 1 0.1 14/09/2018 12:01:00 AM 10 353.15 gate opening 0.10m since 12/9/2018 (2:0pm)
176 1 0.05 14/09/2018 8:00:00 AM 5 176.57
177 1 0.05 17/09/2018 12:01:00 AM 5 176.57 gate opening since 13/9/2018 (11:40pm)
178 1 0.05 18/09/2018 12:01:00 AM 5 176.57 gate opening since 13/9/2018[11:40am]
179 1 0.05 19/09/2018 12:01:00 AM 5 176.57 gate opening since 13/9/2018 (11:40am)
180 1 0.05 20/09/2018 12:01:00 AM 5 176.57 gate opening since 13/9/2018 (11:40am)
181 1 0.05 21/09/2018 12:01:00 AM 5 176.57 gate opening since 13/9/2018 (11:40pm)
182 1 0.1 22/09/2018 12:01:00 AM 10 353.15 gate opening since 21/92018 (9:0pm)
183 1 0.1 23/09/2018 12:01:00 AM 10 353.15 gate opening since21/9/2018[9pm]
184 1 0.05 24/09/2018 8:00:00 AM 5 176.57 One gate opened since 23rd sept.2018 at 9:0PM
185 1 0.05 25/09/2018 8:00:00 AM 5 176.57 Since 23/09/2018 at 9:00PM one gate opened.
186 2 0.5 08/08/2019 12:01:00 AM 101.7 3593.3
187 1 0.21 09/08/2019 4:00:00 PM 28.31 999.77
188 2 0.5 09/08/2019 12:01:00 AM 101.7 3591.54
189 1 0.21 09/08/2019 8:00:00 AM 28.31 999.77
190 1 0.21 10/08/2019 12:06:06 AM 28.31 999.77
191 0 0.3 10/08/2019 8:00:00 AM 28.31 999.77
192 1 0.3 10/08/2019 8:00:00 AM 28.31 999.77
193 1 0.3 11/08/2019 6:47:00 AM 28.31 999.77
194 1 0.05 11/08/2019 8:00:00 AM 5.1 180.11
195 1 0.05 12/08/2019 12:02:01 AM 5.1 180.11
196 1 0.05 13/08/2019 12:02:00 AM 5.1 180.11
197 1 0.05 13/08/2019 8:00:00 AM 5.1 180.11
198 2 0.3 13/08/2019 6:20:00 PM 61 2154.21
199 2 0.3 14/08/2019 12:01:00 AM 61 2154.21
200 2 0.3 15/08/2019 4:25:00 AM 61 2154.21
201 3 5 15/08/2019 5:00:00 AM 1526 53890.69
202 2 2 15/08/2019 12:00:03 PM 407 14373.2
203 2 2 16/08/2019 12:01:00 AM 400 14126
204 0 0 16/08/2019 7:00:00 AM 0 0 all gates are closed
205 1 0.2 18/08/2019 8:00:00 AM 20.3 716.89
206 1 0.3 18/08/2019 12:27:00 AM 101.7 3591.54
207 1 0.3 22/08/2019 8:00:00 AM 30.52 1077.81
208 1 0.3 17/08/2019 3:30:00 PM 101.7 3591.54
209 1 0.2 19/08/2019 12:15:00 AM 20.3 716.89
210 1 0.1 19/08/2019 6:20:00 PM 10 353.15
211 1 0.1 22/08/2019 12:01:00 AM 10 353.15
212 1 0.1 21/08/2019 8:00:00 AM 10 353.15
213 1 0.1 20/08/2019 8:00:00 AM 10 353.15
214 1 0.2 20/08/2019 12:01:00 AM 20.3 716.89
215 1 0.3 23/08/2019 12:01:00 AM 30.52 1077.81
216 1 0.3 23/08/2019 8:00:00 AM 30.52 1077.81
217 2 0.3 23/08/2019 7:15:00 PM 61 2154.21
218 2 0.3 24/08/2019 6:04:00 AM 61 2154.21
219 1 0.3 24/08/2019 8:00:00 AM 30.52 1077.81
220 2 0.4 24/08/2019 11:30:00 AM 81.39 2874.29
221 1 1 25/08/2019 12:01:00 AM 203.5 7186.6
222 1 0.3 25/08/2019 8:00:00 AM 30.52 1077.81
223 1 0.1 25/08/2019 12:00:00 PM 10.19 359.86
224 1 0.5 26/08/2019 12:07:00 AM 50.87 1796.47
225 1 0.3 26/08/2019 8:15:00 PM 30.52 1077.81
226 1 0.3 27/08/2019 12:01:00 AM 30.52 1077.81
227 1 0.3 28/08/2019 12:01:00 AM 30.52 1077.81
228 1 0.5 28/08/2019 3:30:00 PM 50.87 1796.47
229 1 1 28/08/2019 8:00:00 AM 101.7 3591.54
230 2 0.65 30/08/2019 2:00:00 PM 132.2 4671.12
231 1 0.2 28/08/2019 6:15:00 PM 20 706.3
232 1 0.2 29/08/2019 12:01:00 AM 20 706.3
233 1 0.05 29/08/2019 1:00:00 PM 5 176.57
234 1 0.05 29/08/2019 12:30:00 PM 5 176.57
235 2 1.25 30/08/2019 4:10:00 PM 254.3 8980.6
236 1 0.3 30/08/2019 8:00:00 AM 30.52 1077.81
237 2 1.25 31/08/2019 12:01:00 AM 254.3 8980.6
238 1 0.3 31/08/2019 4:00:00 PM 30.52 1077.81
239 1 0.3 01/09/2019 12:01:00 AM 30.52 1077.81
240 1 0.5 01/09/2019 8:00:00 AM 50.87 1796.47
241 1 0.2 01/09/2019 8:00:00 PM 20 706.3
242 1 0.2 02/09/2019 7:00:00 AM 20 706.3
243 1 0.1 02/09/2019 6:40:00 AM 10 353.15
244 0 0 02/09/2019 9:20:00 AM 0 0 all gates are closed at 9:20am
245 1 0.3 04/09/2019 8:00:00 AM 30.52 1077.81
246 1 0.05 04/09/2019 4:00:00 PM 5 176.57
247 1 0.1 05/09/2019 8:00:00 AM 10 353.15
248 1 0.1 06/09/2019 12:01:00 AM 15.83 559.04 gate opening since 5/9/2019 at11:30am
249 0 0 06/09/2019 4:00:00 AM 0 0 All gates are closed
250 3 2.5 08/09/2019 8:15:00 PM 254.3 8983.08
251 1 0.5 09/09/2019 8:00:00 AM 50.87 1796.47
252 3 2.5 09/09/2019 3:00:00 AM 254.3 8980.6
253 1 0.5 09/09/2019 8:00:00 PM 50.87 1796.47
254 1 0.3 10/09/2019 8:00:00 AM 30.52 1077.81
255 1 0.3 11/09/2019 6:00:00 AM 30.52 1077.81
256 1 0.1 11/09/2019 8:00:00 AM 10 353.15
257 1 0.1 11/09/2019 8:00:00 AM 10.17 359.15
258 1 0.1 12/09/2019 12:01:00 AM 10 353.15
259 1 0.05 12/09/2019 8:00:00 AM 5 176.57
260 2 3 13/09/2019 4:00:00 PM 814 28746.41
261 3 0.5 12/09/2019 8:00:00 PM 152.6 5389.07
262 1 0.1 13/09/2019 8:00:00 AM 10 353.15
263 3 0.5 13/09/2019 3:09:00 AM 152.6 5389.07
264 1 0.5 13/09/2019 8:00:00 PM 50.87 1796.47
265 1 0.5 14/09/2019 12:01:00 AM 50.87 1796.47
266 1 0.5 14/09/2019 12:00:00 PM 60.87 2149.62
267 1 0.3 15/09/2019 11:35:00 AM 30.5 1077.11
268 1 1 15/09/2019 5:40:00 PM 101.7 3593.3
269 1 0.1 16/09/2019 8:30:00 PM 10 353.15
270 1 0.1 16/09/2019 12:30:00 PM 10 353.15
271 1 0.1 17/09/2019 12:01:00 AM 10 353.15
272 1 0.5 17/09/2019 8:00:00 AM 50.87 1796.47
273 1 0.5 18/09/2019 10:00:00 AM 50.87 1796.47
274 1 0.5 18/09/2019 12:01:00 AM 274.1 9681.96
275 1 0.1 19/09/2019 8:00:00 PM 10 353.15
276 1 0.2 18/09/2019 10:50:00 AM 20 706.3
277 1 0.1 20/09/2019 12:01:00 AM 10 353.15
278 1 0.1 21/09/2019 12:01:00 AM 10 353.15 gate opening since 20/9/2019at 8:0pm
279 1 0.01 21/09/2019 9:00:00 AM 10 353.15
280 1 0.3 24/09/2019 8:00:00 AM 30.52 1077.81
281 1 0.05 22/09/2019 10:00:00 AM 50.87 1796.47
282 1 0.3 24/09/2019 12:01:00 AM 30.52 1077.81
283 1 0.1 22/09/2019 12:01:00 AM 10 353.15
284 1 0.5 22/09/2019 8:30:00 AM 50.87 1796.47
285 1 0.5 23/09/2019 1:09:00 AM 50.87 1796.47
286 1 0.3 23/09/2019 6:20:00 AM 30.52 1077.81
287 1 0.1 26/09/2019 12:01:00 AM 10 353.15
288 1 0.1 25/09/2019 8:00:00 AM 10 353.15
289 1 0.1 27/09/2019 12:01:00 AM 10 353.15
290 1 0.1 27/09/2019 8:00:00 AM 10 353.15
291 1 0.1 28/09/2019 3:55:00 AM 10 353.15
292 1 0.3 28/09/2019 4:00:00 PM 30.52 1077.81
293 1 0.5 28/09/2019 8:00:00 PM 50.87 1796.47
294 1 0.5 29/09/2019 12:40:00 AM 50.87 1796.47
295 1 0.5 30/09/2019 12:01:00 AM 50.87 1796.47
296 0 0 30/09/2019 6:20:00 PM 0 0 All gates are closed
297 1 0.5 01/10/2019 7:50:00 PM 50.87 1796.47
298 1 0.1 02/10/2019 10:00:00 AM 10 353.15
299 1 0.1 03/10/2019 12:00:00 PM 10 353.15
300 1 0.1 06/10/2019 9:00:00 AM 10 353.15
301 1 0.13 04/10/2019 12:01:00 AM 10 353.15
302 1 0.1 04/10/2019 12:00:00 PM 10 353.15
303 1 0.1 05/10/2019 12:01:00 AM 10 353.15
304 1 0.1 06/10/2019 12:01:00 AM 10 353.15
Powered by © Water Resources Department (MP). All Rights Reserved.